createdAt,value
2022-11-13T00:01:25.451Z,95.81
2022-11-13T00:04:10.953Z,95.28
2022-11-13T00:06:59.529Z,95.61
2022-11-13T00:09:45.092Z,94.70
2022-11-13T00:12:31.457Z,94.59
2022-11-13T00:15:17.860Z,94.27
2022-11-13T00:18:04.208Z,95.49
2022-11-13T00:20:49.441Z,96.10
2022-11-13T00:23:36.000Z,95.82
2022-11-13T00:26:27.821Z,95.39
2022-11-13T00:29:13.034Z,95.51
2022-11-13T00:31:58.144Z,95.43
2022-11-13T00:34:48.124Z,95.54
2022-11-13T00:37:34.475Z,96.96
2022-11-13T00:40:19.890Z,96.16
2022-11-13T00:43:05.234Z,94.71
2022-11-13T00:45:50.707Z,94.22
2022-11-13T00:48:36.928Z,94.58
2022-11-13T00:51:22.594Z,94.25
2022-11-13T00:54:07.722Z,95.15
2022-11-13T00:56:52.974Z,95.64
2022-11-13T00:59:40.595Z,94.80
2022-11-13T01:02:26.101Z,95.40
2022-11-13T01:05:11.454Z,95.52
2022-11-13T01:07:57.021Z,94.41
2022-11-13T01:10:53.774Z,94.47
2022-11-13T01:13:41.629Z,94.82
2022-11-13T01:16:27.945Z,94.97
2022-11-13T01:19:14.381Z,94.63
2022-11-13T01:21:59.779Z,95.00
2022-11-13T01:24:44.926Z,94.73
2022-11-13T01:27:30.594Z,94.84
2022-11-13T01:30:16.589Z,94.52
2022-11-13T01:33:03.564Z,93.50
2022-11-13T01:35:49.092Z,92.51
2022-11-13T01:38:36.998Z,93.03
2022-11-13T01:41:32.741Z,91.81
2022-11-13T01:44:19.370Z,91.40
2022-11-13T01:47:07.246Z,92.42
2022-11-13T01:49:57.632Z,93.69
2022-11-13T01:52:43.137Z,94.29
2022-11-13T01:55:29.214Z,94.53
2022-11-13T01:58:14.702Z,94.37
2022-11-13T02:01:00.059Z,93.73
2022-11-13T02:03:45.805Z,93.60
2022-11-13T02:06:49.391Z,92.77
2022-11-13T02:09:43.329Z,92.91
2022-11-13T02:12:33.248Z,92.96
2022-11-13T02:15:40.936Z,93.23
2022-11-13T02:18:29.815Z,93.41
2022-11-13T02:21:42.512Z,92.89
2022-11-13T02:24:32.636Z,93.90
2022-11-13T02:27:32.524Z,94.63
2022-11-13T02:30:26.903Z,94.71
2022-11-13T02:33:22.719Z,95.45
2022-11-13T02:36:11.918Z,96.17
2022-11-13T02:39:02.114Z,97.10
2022-11-13T02:41:47.354Z,95.32
2022-11-13T02:44:32.903Z,94.06
2022-11-13T02:47:18.303Z,93.09
2022-11-13T02:50:04.643Z,92.59
2022-11-13T02:52:50.345Z,92.89
2022-11-13T02:55:35.900Z,94.63
2022-11-13T02:58:22.249Z,94.65
2022-11-13T03:01:07.583Z,93.84
2022-11-13T03:04:00.015Z,93.89
2022-11-13T03:06:45.304Z,94.08
2022-11-13T03:09:31.498Z,93.71
2022-11-13T03:12:16.726Z,93.18
2022-11-13T03:15:02.422Z,92.41
2022-11-13T03:17:48.002Z,93.44
2022-11-13T03:20:35.657Z,92.65
2022-11-13T03:23:21.116Z,93.20
2022-11-13T03:26:11.537Z,93.41
2022-11-13T03:28:57.363Z,94.60
2022-11-13T03:31:44.262Z,95.64
2022-11-13T03:34:29.397Z,95.73
2022-11-13T03:37:14.799Z,96.76
2022-11-13T03:40:00.115Z,97.44
2022-11-13T03:42:45.827Z,98.10
2022-11-13T03:45:33.099Z,97.22
2022-11-13T03:48:18.294Z,97.29
2022-11-13T03:51:04.029Z,98.09
2022-11-13T03:53:49.134Z,96.40
2022-11-13T03:56:34.130Z,97.61
2022-11-13T03:59:19.136Z,97.48
2022-11-13T04:02:05.529Z,98.85
2022-11-13T04:04:51.138Z,99.32
2022-11-13T04:07:36.755Z,98.65
2022-11-13T04:10:24.958Z,99.24
2022-11-13T04:13:10.324Z,98.97
2022-11-13T04:15:55.822Z,98.11
2022-11-13T04:18:40.980Z,97.96
2022-11-13T04:21:27.711Z,98.48
2022-11-13T04:24:13.641Z,97.75
2022-11-13T04:26:58.774Z,95.35
2022-11-13T04:29:43.845Z,96.38
2022-11-13T04:32:30.546Z,95.48
2022-11-13T04:35:18.230Z,95.71
2022-11-13T04:38:03.572Z,95.19
2022-11-13T04:40:51.471Z,94.30
2022-11-13T04:43:37.440Z,94.59
2022-11-13T04:46:22.807Z,95.10
2022-11-13T04:49:09.053Z,93.89
2022-11-13T04:51:54.183Z,94.18
2022-11-13T04:54:39.426Z,93.22
2022-11-13T04:57:24.907Z,94.49
2022-11-13T05:00:14.719Z,94.36
2022-11-13T05:03:00.888Z,93.99
2022-11-13T05:05:46.567Z,93.75
2022-11-13T05:08:31.934Z,94.50
2022-11-13T05:11:17.209Z,95.07
2022-11-13T05:14:03.578Z,95.75
2022-11-13T05:16:50.110Z,96.29
2022-11-13T05:19:35.837Z,96.73
2022-11-13T05:22:20.910Z,94.91
2022-11-13T05:25:06.931Z,97.08
2022-11-13T05:27:52.045Z,98.18
2022-11-13T05:30:37.509Z,98.34
2022-11-13T05:33:22.719Z,98.05
2022-11-13T05:36:12.403Z,96.40
2022-11-13T05:38:58.774Z,96.14
2022-11-13T05:41:46.188Z,95.44
2022-11-13T05:44:31.497Z,95.10
2022-11-13T05:47:17.218Z,96.59
2022-11-13T05:50:02.854Z,96.34
2022-11-13T05:52:48.960Z,96.93
2022-11-13T05:55:34.454Z,97.98
2022-11-13T05:58:19.721Z,98.19
2022-11-13T06:01:08.129Z,98.25
2022-11-13T06:03:55.349Z,99.60
2022-11-13T06:06:42.401Z,98.21
2022-11-13T06:09:27.888Z,97.03
2022-11-13T06:12:13.207Z,97.06
2022-11-13T06:14:58.520Z,96.44
2022-11-13T06:17:48.739Z,97.24
2022-11-13T06:20:37.582Z,96.03
2022-11-13T06:23:22.551Z,95.03
2022-11-13T06:26:14.845Z,94.83
2022-11-13T06:29:01.289Z,95.64
2022-11-13T06:31:46.722Z,94.49
2022-11-13T06:34:38.162Z,94.52
2022-11-13T06:37:23.183Z,96.21
2022-11-13T06:40:09.125Z,96.60
2022-11-13T06:42:57.523Z,97.62
2022-11-13T06:45:42.706Z,97.09
2022-11-13T06:48:28.363Z,97.12
2022-11-13T06:51:16.786Z,96.76
2022-11-13T06:54:02.133Z,95.92
2022-11-13T06:56:48.122Z,95.78
2022-11-13T06:59:33.165Z,96.92
2022-11-13T07:02:19.169Z,97.12
2022-11-13T07:05:05.362Z,96.95
2022-11-13T07:07:52.570Z,97.85
2022-11-13T07:10:38.315Z,96.53
2022-11-13T07:13:25.535Z,97.15
2022-11-13T07:16:19.123Z,96.87
2022-11-13T07:19:04.736Z,97.41
2022-11-13T07:21:50.261Z,97.48
2022-11-13T07:24:35.421Z,96.75
2022-11-13T07:27:20.716Z,94.70
2022-11-13T07:30:06.815Z,94.20
2022-11-13T07:32:52.366Z,95.03
2022-11-13T07:35:37.374Z,94.94
2022-11-13T07:38:23.597Z,94.08
2022-11-13T07:41:08.894Z,93.31
2022-11-13T07:43:54.462Z,92.43
2022-11-13T07:46:39.544Z,93.29
2022-11-13T07:49:24.780Z,94.08
2022-11-13T07:52:10.079Z,95.27
2022-11-13T07:54:55.696Z,95.19
2022-11-13T07:57:41.107Z,96.27
2022-11-13T08:00:28.462Z,95.00
2022-11-13T08:03:15.989Z,95.31
2022-11-13T08:06:07.843Z,94.33
2022-11-13T08:08:53.762Z,93.14
2022-11-13T08:11:38.870Z,92.86
2022-11-13T08:14:24.349Z,90.95
2022-11-13T08:17:10.792Z,92.01
2022-11-13T08:19:56.644Z,91.80
2022-11-13T08:22:42.051Z,92.13
2022-11-13T08:25:28.188Z,93.54
2022-11-13T08:28:13.689Z,93.48
2022-11-13T08:31:00.767Z,94.81
2022-11-13T08:33:45.873Z,93.96
2022-11-13T08:36:31.442Z,94.13
2022-11-13T08:39:17.245Z,93.16
2022-11-13T08:42:04.242Z,92.64
2022-11-13T08:44:49.516Z,92.31
2022-11-13T08:47:34.522Z,91.49
2022-11-13T08:50:19.736Z,91.72
2022-11-13T08:53:05.848Z,93.02
2022-11-13T08:55:51.050Z,93.75
2022-11-13T08:58:36.340Z,92.73
2022-11-13T09:01:22.917Z,91.06
2022-11-13T09:04:10.925Z,91.12
2022-11-13T09:06:56.921Z,89.91
2022-11-13T09:09:42.410Z,90.21
2022-11-13T09:12:27.601Z,89.48
2022-11-13T09:15:13.035Z,88.59
2022-11-13T09:18:00.340Z,88.75
2022-11-13T09:20:45.974Z,89.70
2022-11-13T09:23:31.654Z,90.33
2022-11-13T09:26:18.348Z,89.59
2022-11-13T09:29:03.936Z,89.85
2022-11-13T09:31:50.153Z,88.97
2022-11-13T09:34:35.145Z,88.77
2022-11-13T09:37:21.403Z,88.36
2022-11-13T09:40:11.678Z,88.46
2022-11-13T09:42:57.325Z,89.63
2022-11-13T09:45:44.044Z,90.79
2022-11-13T09:48:42.262Z,90.04
2022-11-13T09:51:38.577Z,90.79
2022-11-13T09:54:24.044Z,90.08
2022-11-13T09:57:29.919Z,90.62
2022-11-13T10:00:22.338Z,90.95
2022-11-13T10:03:54.016Z,88.63
2022-11-13T10:06:39.131Z,88.86
2022-11-13T10:09:48.205Z,89.43
2022-11-13T10:12:33.998Z,90.21
2022-11-13T10:15:28.843Z,90.98
2022-11-13T10:18:21.295Z,90.51
2022-11-13T10:21:26.067Z,90.08
2022-11-13T10:24:18.735Z,86.98
2022-11-13T10:27:09.953Z,86.78
2022-11-13T10:29:56.104Z,86.29
2022-11-13T10:32:42.178Z,86.82
2022-11-13T10:35:47.113Z,86.14
2022-11-13T10:38:38.805Z,85.24
2022-11-13T10:41:24.470Z,85.25
2022-11-13T10:44:20.185Z,84.10
2022-11-13T10:47:36.068Z,84.00
2022-11-13T10:50:30.242Z,83.77
2022-11-13T10:53:17.675Z,83.78
2022-11-13T10:56:13.550Z,82.32
2022-11-13T10:59:14.912Z,82.91
2022-11-13T11:02:16.112Z,83.98
2022-11-13T11:05:20.277Z,82.82
2022-11-13T11:08:10.135Z,82.79
2022-11-13T11:11:19.863Z,83.54
2022-11-13T11:14:22.548Z,83.41
2022-11-13T11:17:12.739Z,82.20
2022-11-13T11:20:07.260Z,83.00
2022-11-13T11:23:02.248Z,82.75
2022-11-13T11:25:55.513Z,82.25
2022-11-13T11:28:52.429Z,81.20
2022-11-13T11:31:56.429Z,81.28
2022-11-13T11:34:54.952Z,80.38
2022-11-13T11:38:25.527Z,78.95
2022-11-13T11:41:17.169Z,79.25
2022-11-13T11:44:13.812Z,80.26
2022-11-13T11:46:58.855Z,80.91
2022-11-13T11:49:45.405Z,81.12
2022-11-13T11:52:54.534Z,80.91
2022-11-13T11:56:00.096Z,80.14
2022-11-13T11:59:16.096Z,79.22
2022-11-13T12:02:31.148Z,78.52
2022-11-13T12:05:20.333Z,78.68
2022-11-13T12:08:22.939Z,78.91
2022-11-13T12:11:28.508Z,77.97
2022-11-13T12:14:33.223Z,77.58
2022-11-13T12:17:39.636Z,79.32
2022-11-13T12:21:10.332Z,79.54
2022-11-13T12:24:14.021Z,80.06
2022-11-13T12:27:41.989Z,78.99
2022-11-13T12:30:41.311Z,80.79
2022-11-13T12:34:00.905Z,80.28
2022-11-13T12:36:47.683Z,80.02
2022-11-13T12:39:52.303Z,79.76
2022-11-13T12:42:49.750Z,80.43
2022-11-13T12:45:50.431Z,80.91
2022-11-13T12:48:38.830Z,80.10
2022-11-13T12:51:24.345Z,80.13
2022-11-13T12:54:10.865Z,82.26
2022-11-13T12:57:14.455Z,83.39
2022-11-13T13:00:21.528Z,84.25
2022-11-13T13:03:13.183Z,84.18
2022-11-13T13:06:13.358Z,83.58
2022-11-13T13:09:27.354Z,82.92
2022-11-13T13:12:50.261Z,83.81
2022-11-13T13:15:38.591Z,83.57
2022-11-13T13:18:28.805Z,83.24
2022-11-13T13:21:19.613Z,83.64
2022-11-13T13:24:27.246Z,82.94
2022-11-13T13:27:27.314Z,82.79
2022-11-13T13:30:22.577Z,82.19
2022-11-13T13:33:31.303Z,82.08
2022-11-13T13:36:23.871Z,80.70
2022-11-13T13:39:25.763Z,80.80
2022-11-13T13:42:36.338Z,81.25
2022-11-13T13:45:27.434Z,80.62
2022-11-13T13:48:19.333Z,80.51
2022-11-13T13:51:19.725Z,80.54
2022-11-13T13:54:08.206Z,81.09
2022-11-13T13:56:56.109Z,80.72
2022-11-13T13:59:44.965Z,79.75
2022-11-13T14:02:31.226Z,79.74
2022-11-13T14:05:29.786Z,78.86
2022-11-13T14:08:20.733Z,79.28
2022-11-13T14:11:34.483Z,79.53
2022-11-13T14:14:22.515Z,78.91
2022-11-13T14:17:10.031Z,78.71
2022-11-13T14:20:00.787Z,78.42
2022-11-13T14:22:53.279Z,77.64
2022-11-13T14:25:43.810Z,77.12
2022-11-13T14:28:31.975Z,76.09
2022-11-13T14:31:17.683Z,76.08
2022-11-13T14:34:10.612Z,76.58
2022-11-13T14:36:56.168Z,76.23
2022-11-13T14:39:47.066Z,76.08
2022-11-13T14:42:37.724Z,75.04
2022-11-13T14:45:32.045Z,75.33
2022-11-13T14:48:22.758Z,76.20
2022-11-13T14:51:28.875Z,74.27
2022-11-13T14:55:08.011Z,75.05
2022-11-13T14:57:49.711Z,73.84
2022-11-13T15:00:37.896Z,73.32
2022-11-13T15:03:24.663Z,74.25
2022-11-13T15:06:19.372Z,74.55
2022-11-13T15:09:16.495Z,73.40
2022-11-13T15:12:05.759Z,74.37
2022-11-13T15:14:51.459Z,75.30
2022-11-13T15:17:36.829Z,75.06
2022-11-13T15:20:27.571Z,75.50
2022-11-13T15:23:15.548Z,75.14
2022-11-13T15:26:00.739Z,76.09
2022-11-13T15:28:46.082Z,76.52
2022-11-13T15:31:42.524Z,76.93
2022-11-13T15:34:29.084Z,76.67
2022-11-13T15:37:16.541Z,76.28
2022-11-13T15:40:02.281Z,76.47
2022-11-13T15:42:48.094Z,77.47
2022-11-13T15:45:34.222Z,77.48
2022-11-13T15:48:19.754Z,77.04
2022-11-13T15:51:05.402Z,78.69
2022-11-13T15:54:13.762Z,80.10
2022-11-13T15:56:58.856Z,81.92
2022-11-13T15:59:43.964Z,83.89
2022-11-13T16:02:31.645Z,84.85
2022-11-13T16:05:17.316Z,85.88
2022-11-13T16:08:03.527Z,86.19
2022-11-13T16:10:48.874Z,87.92
2022-11-13T16:13:34.030Z,88.63
2022-11-13T16:16:23.533Z,87.63
2022-11-13T16:19:15.012Z,87.44
2022-11-13T16:22:00.167Z,88.19
2022-11-13T16:24:48.715Z,89.94
2022-11-13T16:27:34.455Z,90.70
2022-11-13T16:30:23.295Z,89.27
2022-11-13T16:33:12.771Z,90.56
2022-11-13T16:35:59.372Z,91.62
2022-11-13T16:38:45.158Z,90.73
2022-11-13T16:41:31.851Z,90.74
2022-11-13T16:44:18.374Z,91.55
2022-11-13T16:47:05.520Z,91.67
2022-11-13T16:49:51.216Z,91.77
2022-11-13T16:52:36.659Z,91.94
2022-11-13T16:55:21.815Z,90.80
2022-11-13T16:58:07.280Z,90.58
2022-11-13T17:00:59.791Z,91.22
2022-11-13T17:03:45.948Z,90.83
2022-11-13T17:06:34.465Z,91.16
2022-11-13T17:09:19.987Z,92.11
2022-11-13T17:12:05.482Z,92.66
2022-11-13T17:14:50.446Z,92.10
2022-11-13T17:17:35.798Z,91.33
2022-11-13T17:20:22.277Z,90.10
2022-11-13T17:23:11.246Z,90.37
2022-11-13T17:25:56.390Z,90.55
2022-11-13T17:28:41.679Z,90.76
2022-11-13T17:31:27.680Z,90.67
2022-11-13T17:34:13.058Z,91.75
2022-11-13T17:36:58.464Z,91.89
2022-11-13T17:39:43.641Z,91.91
2022-11-13T17:42:30.890Z,92.09
2022-11-13T17:45:16.138Z,92.42
2022-11-13T17:48:02.199Z,91.65
2022-11-13T17:50:57.520Z,89.92
2022-11-13T17:53:42.861Z,90.47
2022-11-13T17:56:28.415Z,90.57
2022-11-13T17:59:14.070Z,89.86
2022-11-13T18:02:00.482Z,90.01
2022-11-13T18:04:46.144Z,89.02
2022-11-13T18:07:34.817Z,89.82
2022-11-13T18:10:19.906Z,90.67
2022-11-13T18:13:05.869Z,91.03
2022-11-13T18:15:51.339Z,90.56
2022-11-13T18:18:37.331Z,90.30
2022-11-13T18:21:25.357Z,89.59
2022-11-13T18:24:16.329Z,89.51
2022-11-13T18:27:01.956Z,89.57
2022-11-13T18:29:47.400Z,90.22
2022-11-13T18:32:32.732Z,90.82
2022-11-13T18:35:17.908Z,90.45
2022-11-13T18:38:03.327Z,89.83
2022-11-13T18:40:48.478Z,89.04
2022-11-13T18:43:34.093Z,88.96
2022-11-13T18:46:23.491Z,88.46
2022-11-13T18:49:09.324Z,87.83
2022-11-13T18:51:54.661Z,86.93
2022-11-13T18:54:40.250Z,85.45
2022-11-13T18:57:26.124Z,84.08
2022-11-13T19:00:11.757Z,82.70
2022-11-13T19:02:58.216Z,81.69
2022-11-13T19:05:47.378Z,81.35
2022-11-13T19:08:38.210Z,80.99
2022-11-13T19:11:28.060Z,80.82
2022-11-13T19:14:15.528Z,80.68
2022-11-13T19:17:00.691Z,80.78
2022-11-13T19:19:46.145Z,81.66
2022-11-13T19:22:32.267Z,81.29
2022-11-13T19:25:17.606Z,81.08
2022-11-13T19:28:07.852Z,80.62
2022-11-13T19:30:56.391Z,80.19
2022-11-13T19:33:41.821Z,80.22
2022-11-13T19:36:28.943Z,80.73
2022-11-13T19:39:14.271Z,81.25
2022-11-13T19:41:59.893Z,81.49
2022-11-13T19:44:45.519Z,81.54
2022-11-13T19:47:31.152Z,80.87
2022-11-13T19:50:16.939Z,80.31
2022-11-13T19:53:02.196Z,80.39
2022-11-13T19:55:55.302Z,79.56
2022-11-13T19:58:44.335Z,80.21
2022-11-13T20:01:31.742Z,83.16
2022-11-13T20:04:17.840Z,81.29
2022-11-13T20:07:03.236Z,83.42
2022-11-13T20:09:48.389Z,85.86
2022-11-13T20:12:35.335Z,87.76
2022-11-13T20:15:20.541Z,89.18
2022-11-13T20:18:05.898Z,90.37
2022-11-13T20:20:54.686Z,91.42
2022-11-13T20:23:40.885Z,92.87
2022-11-13T20:26:27.381Z,93.16
2022-11-13T20:29:15.903Z,94.43
2022-11-13T20:32:04.650Z,94.09
2022-11-13T20:34:49.978Z,93.29
2022-11-13T20:37:35.720Z,92.90
2022-11-13T20:40:21.845Z,92.20
2022-11-13T20:43:07.111Z,90.82
2022-11-13T20:46:11.922Z,90.81
2022-11-13T20:48:57.569Z,90.21
2022-11-13T20:51:45.236Z,89.74
2022-11-13T20:54:33.818Z,89.42
2022-11-13T20:57:21.473Z,88.87
2022-11-13T21:00:07.370Z,89.52
2022-11-13T21:02:52.930Z,90.08
2022-11-13T21:05:38.361Z,90.26
2022-11-13T21:08:23.733Z,90.16
2022-11-13T21:11:19.632Z,89.32
2022-11-13T21:14:05.550Z,88.50
2022-11-13T21:16:51.692Z,88.62
2022-11-13T21:19:37.145Z,89.98
2022-11-13T21:22:22.829Z,88.88
2022-11-13T21:25:08.228Z,88.78
2022-11-13T21:27:55.008Z,89.79
2022-11-13T21:30:40.288Z,88.34
2022-11-13T21:33:26.033Z,88.14
2022-11-13T21:36:16.756Z,85.63
2022-11-13T21:39:02.054Z,87.22
2022-11-13T21:41:47.430Z,87.33
2022-11-13T21:44:32.465Z,89.63
2022-11-13T21:47:17.615Z,90.96
2022-11-13T21:50:08.819Z,90.66
2022-11-13T21:52:54.217Z,89.59
2022-11-13T21:55:39.542Z,91.37
2022-11-13T21:58:33.136Z,93.47
2022-11-13T22:01:18.920Z,94.55
2022-11-13T22:04:04.460Z,96.07
2022-11-13T22:06:51.237Z,97.67
2022-11-13T22:09:38.125Z,97.98
2022-11-13T22:12:24.220Z,99.74
2022-11-13T22:15:10.715Z,99.89
2022-11-13T22:17:56.011Z,100.00
2022-11-13T22:20:41.515Z,100.00
2022-11-13T22:23:27.918Z,99.76
2022-11-13T22:26:15.044Z,99.70
2022-11-13T22:29:00.649Z,100.00
2022-11-13T22:31:47.994Z,100.00
2022-11-13T22:34:33.539Z,100.00
2022-11-13T22:37:18.798Z,100.00
2022-11-13T22:40:04.338Z,100.00
2022-11-13T22:42:49.647Z,100.00
2022-11-13T22:45:34.848Z,100.00
2022-11-13T22:48:20.053Z,100.00
2022-11-13T22:51:14.630Z,100.00
2022-11-13T22:54:04.201Z,100.00
2022-11-13T22:56:49.820Z,100.00
2022-11-13T22:59:35.199Z,100.00
2022-11-13T23:02:20.339Z,100.00
2022-11-13T23:05:06.006Z,100.00
2022-11-13T23:07:53.016Z,100.00
2022-11-13T23:10:38.467Z,100.00
2022-11-13T23:13:24.956Z,100.00
2022-11-13T23:16:14.124Z,100.00
2022-11-13T23:19:00.782Z,100.00
2022-11-13T23:21:46.518Z,100.00
2022-11-13T23:24:33.215Z,100.00
2022-11-13T23:27:18.938Z,100.00
2022-11-13T23:30:04.585Z,99.28
2022-11-13T23:32:50.153Z,99.98
2022-11-13T23:35:35.683Z,100.00
2022-11-13T23:38:21.605Z,98.64
2022-11-13T23:41:07.236Z,98.44
2022-11-13T23:44:09.541Z,99.08
2022-11-13T23:46:55.042Z,99.32
2022-11-13T23:49:40.612Z,98.87
2022-11-13T23:52:26.326Z,100.00
2022-11-13T23:55:11.635Z,99.99
2022-11-13T23:58:02.124Z,100.00
